createdAt,value
2018-11-11T00:00:24.847Z,100.00
2018-11-11T00:02:55.611Z,100.00
2018-11-11T00:05:25.971Z,100.00
2018-11-11T00:07:56.280Z,100.00
2018-11-11T00:10:26.475Z,100.00
2018-11-11T00:12:56.799Z,100.00
2018-11-11T00:15:27.084Z,100.00
2018-11-11T00:17:57.659Z,100.00
2018-11-11T00:20:28.448Z,100.00
2018-11-11T00:22:59.513Z,100.00
2018-11-11T00:25:29.764Z,100.00
2018-11-11T00:28:00.252Z,100.00
2018-11-11T00:30:30.495Z,100.00
2018-11-11T00:33:00.680Z,100.00
2018-11-11T00:35:31.176Z,100.00
2018-11-11T00:38:01.628Z,100.00
2018-11-11T00:40:31.803Z,100.00
2018-11-11T00:43:02.278Z,100.00
2018-11-11T00:45:32.523Z,100.00
2018-11-11T00:48:02.789Z,100.00
2018-11-11T00:50:33.060Z,100.00
2018-11-11T00:53:03.215Z,100.00
2018-11-11T00:55:40.574Z,100.00
2018-11-11T00:58:10.919Z,100.00
2018-11-11T01:00:41.090Z,100.00
2018-11-11T01:03:11.400Z,100.00
2018-11-11T01:05:41.538Z,100.00
2018-11-11T01:08:11.814Z,100.00
2018-11-11T01:10:42.038Z,100.00
2018-11-11T01:13:12.268Z,100.00
2018-11-11T01:15:42.554Z,100.00
2018-11-11T01:18:13.144Z,100.00
2018-11-11T01:20:43.546Z,100.00
2018-11-11T01:23:13.923Z,100.00
2018-11-11T01:25:44.228Z,100.00
2018-11-11T01:28:14.609Z,100.00
2018-11-11T01:30:44.820Z,100.00
2018-11-11T01:33:15.156Z,100.00
2018-11-11T01:35:45.406Z,100.00
2018-11-11T01:38:15.673Z,100.00
2018-11-11T01:40:45.838Z,100.00
2018-11-11T01:43:16.054Z,100.00
2018-11-11T01:45:46.366Z,100.00
2018-11-11T01:48:16.625Z,100.00
2018-11-11T01:50:46.780Z,100.00
2018-11-11T01:53:17.073Z,99.55
2018-11-11T01:55:47.332Z,99.54
2018-11-11T01:58:17.545Z,99.83
2018-11-11T02:00:47.747Z,100.00
2018-11-11T02:03:18.470Z,100.00
2018-11-11T02:05:48.722Z,100.00
2018-11-11T02:08:19.143Z,100.00
2018-11-11T02:10:49.353Z,100.00
2018-11-11T02:13:19.807Z,100.00
2018-11-11T02:15:49.944Z,100.00
2018-11-11T02:18:20.161Z,100.00
2018-11-11T02:20:50.413Z,100.00
2018-11-11T02:23:20.593Z,100.00
2018-11-11T02:25:50.960Z,100.00
2018-11-11T02:28:21.246Z,100.00
2018-11-11T02:30:51.366Z,100.00
2018-11-11T02:33:21.610Z,100.00
2018-11-11T02:35:52.014Z,100.00
2018-11-11T02:38:22.281Z,100.00
2018-11-11T02:40:52.787Z,100.00
2018-11-11T02:43:22.925Z,100.00
2018-11-11T02:45:53.125Z,100.00
2018-11-11T02:48:23.339Z,100.00
2018-11-11T02:50:53.471Z,99.46
2018-11-11T02:53:23.688Z,98.74
2018-11-11T02:55:54.041Z,99.25
2018-11-11T02:58:24.238Z,97.91
2018-11-11T03:00:54.388Z,98.23
2018-11-11T03:03:24.643Z,98.65
2018-11-11T03:05:55.161Z,98.11
2018-11-11T03:08:25.577Z,96.58
2018-11-11T03:10:55.764Z,96.27
2018-11-11T03:13:26.322Z,97.77
2018-11-11T03:15:57.235Z,98.83
2018-11-11T03:18:27.644Z,99.27
2018-11-11T03:20:57.791Z,97.51
2018-11-11T03:23:28.019Z,97.79
2018-11-11T03:25:58.151Z,98.01
2018-11-11T03:28:28.387Z,95.86
2018-11-11T03:30:58.600Z,96.86
2018-11-11T03:33:28.747Z,96.94
2018-11-11T03:35:58.917Z,97.20
2018-11-11T03:38:29.080Z,95.84
2018-11-11T03:40:59.261Z,97.22
2018-11-11T03:43:29.644Z,96.80
2018-11-11T03:45:59.793Z,96.68
2018-11-11T03:48:30.284Z,96.26
2018-11-11T03:51:00.601Z,95.81
2018-11-11T03:53:30.847Z,96.78
2018-11-11T03:56:00.960Z,96.07
2018-11-11T03:58:31.205Z,97.65
2018-11-11T04:01:01.366Z,97.19
2018-11-11T04:03:31.509Z,95.74
2018-11-11T04:06:01.724Z,95.48
2018-11-11T04:08:31.911Z,95.23
2018-11-11T04:11:02.094Z,93.92
2018-11-11T04:13:32.289Z,93.46
2018-11-11T04:16:03.140Z,93.87
2018-11-11T04:18:34.775Z,93.82
2018-11-11T04:21:05.142Z,92.84
2018-11-11T04:23:35.517Z,92.99
2018-11-11T04:26:05.816Z,93.48
2018-11-11T04:28:36.054Z,93.22
2018-11-11T04:31:07.121Z,93.51
2018-11-11T04:33:37.288Z,91.77
2018-11-11T04:36:07.578Z,92.71
2018-11-11T04:38:37.814Z,93.65
2018-11-11T04:41:08.336Z,92.21
2018-11-11T04:43:38.508Z,93.61
2018-11-11T04:46:10.171Z,93.33
2018-11-11T04:48:40.335Z,94.62
2018-11-11T04:51:10.562Z,96.30
2018-11-11T04:53:40.823Z,93.71
2018-11-11T04:56:11.002Z,94.50
2018-11-11T04:58:41.167Z,94.07
2018-11-11T05:01:11.435Z,93.17
2018-11-11T05:03:41.721Z,91.73
2018-11-11T05:06:11.996Z,91.72
2018-11-11T05:08:42.207Z,92.57
2018-11-11T05:11:12.445Z,92.38
2018-11-11T05:13:42.610Z,92.07
2018-11-11T05:16:12.767Z,90.85
2018-11-11T05:18:43.035Z,90.67
2018-11-11T05:21:13.564Z,91.69
2018-11-11T05:23:43.760Z,92.37
2018-11-11T05:26:13.957Z,92.44
2018-11-11T05:28:44.173Z,91.28
2018-11-11T05:31:14.281Z,91.81
2018-11-11T05:33:44.630Z,92.66
2018-11-11T05:36:14.895Z,94.25
2018-11-11T05:38:45.069Z,93.40
2018-11-11T05:41:15.483Z,91.92
2018-11-11T05:43:45.720Z,93.06
2018-11-11T05:46:16.200Z,92.08
2018-11-11T05:48:46.385Z,91.64
2018-11-11T05:51:16.519Z,93.30
2018-11-11T05:53:46.685Z,90.92
2018-11-11T05:56:17.009Z,90.93
2018-11-11T05:58:47.176Z,90.84
2018-11-11T06:01:17.452Z,91.16
2018-11-11T06:03:48.204Z,90.55
2018-11-11T06:06:18.824Z,89.84
2018-11-11T06:08:49.930Z,90.14
2018-11-11T06:11:20.467Z,88.47
2018-11-11T06:13:50.813Z,89.26
2018-11-11T06:16:21.229Z,89.39
2018-11-11T06:18:51.661Z,89.95
2018-11-11T06:21:21.823Z,89.91
2018-11-11T06:23:52.003Z,90.94
2018-11-11T06:26:22.174Z,89.81
2018-11-11T06:28:56.694Z,90.84
2018-11-11T06:31:27.006Z,90.38
2018-11-11T06:33:57.295Z,91.14
2018-11-11T06:36:27.982Z,92.63
2018-11-11T06:38:58.380Z,93.28
2018-11-11T06:41:28.736Z,94.27
2018-11-11T06:43:59.260Z,94.13
2018-11-11T06:46:29.392Z,94.75
2018-11-11T06:48:59.923Z,95.22
2018-11-11T06:51:30.132Z,96.76
2018-11-11T06:54:00.410Z,96.91
2018-11-11T06:56:30.632Z,98.70
2018-11-11T06:59:00.895Z,98.85
2018-11-11T07:01:31.268Z,97.00
2018-11-11T07:04:02.690Z,98.29
2018-11-11T07:06:33.301Z,99.10
2018-11-11T07:09:03.695Z,96.91
2018-11-11T07:11:34.157Z,97.79
2018-11-11T07:14:04.589Z,97.72
2018-11-11T07:16:34.858Z,96.94
2018-11-11T07:19:05.203Z,95.53
2018-11-11T07:21:35.344Z,95.49
2018-11-11T07:24:05.806Z,95.13
2018-11-11T07:26:36.355Z,93.70
2018-11-11T07:29:07.057Z,93.93
2018-11-11T07:31:37.410Z,93.74
2018-11-11T07:34:07.585Z,94.77
2018-11-11T07:36:37.696Z,94.02
2018-11-11T07:39:12.953Z,92.22
2018-11-11T07:41:43.459Z,92.30
2018-11-11T07:44:13.778Z,92.69
2018-11-11T07:46:44.168Z,92.26
2018-11-11T07:49:14.611Z,90.72
2018-11-11T07:51:44.913Z,91.11
2018-11-11T07:54:15.120Z,90.01
2018-11-11T07:56:45.859Z,90.40
2018-11-11T07:59:16.572Z,89.93
2018-11-11T08:01:47.053Z,90.04
2018-11-11T08:04:17.537Z,90.46
2018-11-11T08:06:48.098Z,89.13
2018-11-11T08:09:18.614Z,89.12
2018-11-11T08:11:59.731Z,89.04
2018-11-11T08:14:32.069Z,87.99
2018-11-11T08:17:05.184Z,86.94
2018-11-11T08:19:35.514Z,86.00
2018-11-11T08:22:06.685Z,85.00
2018-11-11T08:24:37.285Z,85.08
2018-11-11T08:27:07.775Z,86.25
2018-11-11T08:29:38.155Z,86.05
2018-11-11T08:32:08.702Z,86.27
2018-11-11T08:34:39.153Z,84.87
2018-11-11T08:37:09.426Z,83.76
2018-11-11T08:39:39.758Z,81.75
2018-11-11T08:42:09.993Z,83.39
2018-11-11T08:44:40.174Z,83.02
2018-11-11T08:47:10.454Z,85.29
2018-11-11T08:49:40.758Z,84.63
2018-11-11T08:52:11.418Z,83.86
2018-11-11T08:54:41.938Z,85.81
2018-11-11T08:57:12.125Z,85.53
2018-11-11T08:59:42.372Z,85.76
2018-11-11T09:02:12.592Z,85.78
2018-11-11T09:04:42.828Z,87.33
2018-11-11T09:07:13.868Z,87.99
2018-11-11T09:09:44.416Z,88.87
2018-11-11T09:12:14.738Z,91.08
2018-11-11T09:14:45.155Z,89.78
2018-11-11T09:17:15.544Z,88.49
2018-11-11T09:19:45.823Z,89.07
2018-11-11T09:22:17.060Z,88.55
2018-11-11T09:24:47.589Z,86.74
2018-11-11T09:27:19.162Z,85.53
2018-11-11T09:29:50.088Z,85.15
2018-11-11T09:32:21.537Z,82.93
2018-11-11T09:34:52.294Z,83.73
2018-11-11T09:37:22.469Z,82.34
2018-11-11T09:39:53.600Z,81.25
2018-11-11T09:42:24.451Z,82.48
2018-11-11T09:47:33.464Z,79.01
2018-11-11T09:50:05.249Z,77.50
2018-11-11T09:52:35.684Z,78.83
2018-11-11T09:55:07.544Z,78.39
2018-11-11T09:57:39.442Z,78.00
2018-11-11T10:00:16.694Z,78.48
2018-11-11T10:02:52.493Z,80.69
2018-11-11T10:05:28.126Z,79.90
2018-11-11T10:08:06.419Z,80.12
2018-11-11T10:10:44.197Z,80.47
2018-11-11T10:13:20.648Z,78.20
2018-11-11T10:15:59.899Z,77.03
2018-11-11T10:18:33.739Z,76.78
2018-11-11T10:21:09.010Z,77.83
2018-11-11T10:23:46.731Z,79.54
2018-11-11T10:26:22.710Z,75.43
2018-11-11T10:28:57.749Z,75.49
2018-11-11T10:31:33.920Z,77.15
2018-11-11T10:34:12.252Z,77.41
2018-11-11T10:36:51.186Z,78.36
2018-11-11T10:39:26.444Z,78.82
2018-11-11T10:42:03.609Z,77.63
2018-11-11T10:44:43.236Z,75.56
2018-11-11T10:47:17.577Z,75.38
2018-11-11T10:49:52.048Z,74.89
2018-11-11T10:52:22.753Z,70.99
2018-11-11T10:54:53.044Z,70.65
2018-11-11T10:57:23.904Z,71.60
2018-11-11T10:59:54.304Z,70.87
2018-11-11T11:02:37.924Z,71.56
2018-11-11T11:05:11.992Z,71.28
2018-11-11T11:07:42.316Z,72.67
2018-11-11T11:10:13.270Z,71.81
2018-11-11T11:12:43.548Z,71.04
2018-11-11T11:15:13.782Z,71.10
2018-11-11T11:17:44.370Z,69.01
2018-11-11T11:20:14.806Z,70.60
2018-11-11T11:22:45.221Z,69.90
2018-11-11T11:25:15.515Z,69.84
2018-11-11T11:27:45.982Z,70.24
2018-11-11T11:30:16.185Z,69.71
2018-11-11T11:32:46.414Z,71.02
2018-11-11T11:35:17.455Z,70.01
2018-11-11T11:37:47.821Z,69.52
2018-11-11T11:40:18.565Z,70.73
2018-11-11T11:42:49.465Z,70.57
2018-11-11T11:45:20.085Z,70.59
2018-11-11T11:47:53.786Z,70.84
2018-11-11T11:50:24.932Z,70.41
2018-11-11T11:52:55.724Z,70.44
2018-11-11T11:55:27.046Z,68.66
2018-11-11T11:58:17.463Z,70.75
2018-11-11T12:00:48.820Z,70.68
2018-11-11T12:03:20.364Z,69.97
2018-11-11T12:05:51.421Z,71.33
2018-11-11T12:08:22.715Z,71.95
2018-11-11T12:10:53.671Z,71.26
2018-11-11T12:13:24.977Z,72.76
2018-11-11T12:18:41.199Z,72.09
2018-11-11T12:23:55.310Z,72.73
2018-11-11T12:26:34.288Z,72.84
2018-11-11T12:29:05.375Z,70.79
2018-11-11T12:31:35.923Z,70.20
2018-11-11T12:34:07.381Z,68.67
2018-11-11T12:36:38.100Z,67.48
2018-11-11T12:39:17.702Z,67.10
2018-11-11T12:41:49.040Z,68.56
2018-11-11T12:44:20.200Z,68.30
2018-11-11T12:46:50.982Z,70.08
2018-11-11T12:49:22.627Z,71.79
2018-11-11T12:51:53.649Z,71.52
2018-11-11T12:54:25.150Z,71.70
2018-11-11T12:56:56.950Z,73.41
2018-11-11T12:59:27.367Z,75.76
2018-11-11T13:01:57.751Z,73.07
2018-11-11T13:04:29.802Z,73.19
2018-11-11T13:07:00.668Z,73.55
2018-11-11T13:09:31.417Z,76.46
2018-11-11T13:12:02.215Z,78.19
2018-11-11T13:14:32.891Z,80.88
2018-11-11T13:17:04.495Z,82.31
2018-11-11T13:19:35.163Z,85.33
2018-11-11T13:22:09.649Z,86.39
2018-11-11T13:24:40.310Z,88.93
2018-11-11T13:27:11.090Z,87.05
2018-11-11T13:29:41.652Z,87.86
2018-11-11T13:32:12.384Z,91.73
2018-11-11T13:34:43.215Z,93.31
2018-11-11T13:37:13.999Z,95.96
2018-11-11T13:39:44.866Z,95.57
2018-11-11T13:42:23.458Z,97.46
2018-11-11T13:44:54.277Z,97.52
2018-11-11T13:47:25.054Z,99.42
2018-11-11T13:49:56.000Z,100.00
2018-11-11T13:52:28.598Z,100.00
2018-11-11T13:54:59.741Z,100.00
2018-11-11T13:57:31.399Z,100.00
2018-11-11T14:00:01.912Z,100.00
2018-11-11T14:02:32.413Z,100.00
2018-11-11T14:05:04.850Z,100.00
2018-11-11T14:07:35.565Z,100.00
2018-11-11T14:10:07.223Z,100.00
2018-11-11T14:12:39.834Z,100.00
2018-11-11T14:15:16.030Z,100.00
2018-11-11T14:17:47.912Z,100.00
2018-11-11T14:20:20.069Z,100.00
2018-11-11T14:22:51.547Z,100.00
2018-11-11T14:25:25.458Z,100.00
2018-11-11T14:27:57.617Z,100.00
2018-11-11T14:30:29.047Z,100.00
2018-11-11T14:33:01.161Z,100.00
2018-11-11T14:35:31.742Z,100.00
2018-11-11T14:38:02.919Z,100.00
2018-11-11T14:40:33.630Z,100.00
2018-11-11T14:43:04.043Z,100.00
2018-11-11T14:45:35.584Z,100.00
2018-11-11T14:48:07.497Z,100.00
2018-11-11T14:50:39.655Z,100.00
2018-11-11T14:53:17.851Z,100.00
2018-11-11T14:55:48.465Z,100.00
2018-11-11T14:58:20.098Z,100.00
2018-11-11T15:00:50.741Z,100.00
2018-11-11T15:03:21.960Z,100.00
2018-11-11T15:05:52.297Z,100.00
2018-11-11T15:08:24.142Z,100.00
2018-11-11T15:10:55.409Z,100.00
2018-11-11T15:13:25.816Z,100.00
2018-11-11T15:15:56.564Z,100.00
2018-11-11T15:18:27.884Z,100.00
2018-11-11T15:20:58.472Z,100.00
2018-11-11T15:23:32.700Z,100.00
2018-11-11T15:26:03.544Z,100.00
2018-11-11T15:28:34.884Z,100.00
2018-11-11T15:31:08.529Z,100.00
2018-11-11T15:33:39.695Z,100.00
2018-11-11T15:36:10.533Z,100.00
2018-11-11T15:38:43.351Z,100.00
2018-11-11T15:41:14.654Z,100.00
2018-11-11T15:43:45.179Z,100.00
2018-11-11T15:46:15.799Z,100.00
2018-11-11T15:48:48.489Z,100.00
2018-11-11T15:51:20.710Z,100.00
2018-11-11T15:53:52.225Z,100.00
2018-11-11T15:56:23.269Z,100.00
2018-11-11T15:58:55.165Z,100.00
2018-11-11T16:01:26.945Z,100.00
2018-11-11T16:03:58.250Z,100.00
2018-11-11T16:06:31.085Z,100.00
2018-11-11T16:09:11.495Z,100.00
2018-11-11T16:11:55.251Z,100.00
2018-11-11T16:14:32.730Z,100.00
2018-11-11T16:17:05.190Z,100.00
2018-11-11T16:19:40.460Z,100.00
2018-11-11T16:22:12.247Z,100.00
2018-11-11T16:24:43.576Z,100.00
2018-11-11T16:27:15.155Z,100.00
2018-11-11T16:29:47.493Z,100.00
2018-11-11T16:32:18.643Z,100.00
2018-11-11T16:34:50.013Z,100.00
2018-11-11T16:37:20.611Z,100.00
2018-11-11T16:39:51.159Z,100.00
2018-11-11T16:42:22.239Z,100.00
2018-11-11T16:44:53.645Z,100.00
2018-11-11T16:47:24.526Z,100.00
2018-11-11T16:49:54.998Z,100.00
2018-11-11T16:52:25.603Z,100.00
2018-11-11T16:54:55.959Z,100.00
2018-11-11T16:57:26.231Z,100.00
2018-11-11T16:59:57.708Z,100.00
2018-11-11T17:02:30.296Z,100.00
2018-11-11T17:05:00.779Z,100.00
2018-11-11T17:07:33.468Z,100.00
2018-11-11T17:10:04.094Z,100.00
2018-11-11T17:12:35.463Z,100.00
2018-11-11T17:15:06.479Z,100.00
2018-11-11T17:17:45.776Z,100.00
2018-11-11T17:20:17.929Z,100.00
2018-11-11T17:22:48.995Z,100.00
2018-11-11T17:25:20.440Z,100.00
2018-11-11T17:27:52.481Z,100.00
2018-11-11T17:30:26.796Z,100.00
2018-11-11T17:32:58.084Z,100.00
2018-11-11T17:35:29.512Z,100.00
2018-11-11T17:38:00.141Z,100.00
2018-11-11T17:40:31.441Z,100.00
2018-11-11T17:43:02.668Z,100.00
2018-11-11T17:45:33.759Z,100.00
2018-11-11T17:48:05.306Z,100.00
2018-11-11T17:50:36.804Z,100.00
2018-11-11T17:53:08.330Z,100.00
2018-11-11T17:55:40.451Z,100.00
2018-11-11T17:58:11.703Z,100.00
2018-11-11T18:00:43.177Z,100.00
2018-11-11T18:03:14.542Z,100.00
2018-11-11T18:05:44.982Z,100.00
2018-11-11T18:08:15.951Z,100.00
2018-11-11T18:10:51.082Z,100.00
2018-11-11T18:13:22.157Z,100.00
2018-11-11T18:15:54.442Z,100.00
2018-11-11T18:18:25.204Z,100.00
2018-11-11T18:20:55.941Z,100.00
2018-11-11T18:23:26.737Z,100.00
2018-11-11T18:25:59.034Z,100.00
2018-11-11T18:28:30.352Z,100.00
2018-11-11T18:31:01.203Z,100.00
2018-11-11T18:36:13.201Z,100.00
2018-11-11T18:38:50.430Z,100.00
2018-11-11T18:41:20.873Z,100.00
2018-11-11T18:43:51.237Z,100.00
2018-11-11T18:46:21.827Z,100.00
2018-11-11T18:48:57.415Z,100.00
2018-11-11T18:51:27.690Z,100.00
2018-11-11T18:53:58.310Z,100.00
2018-11-11T18:56:28.718Z,100.00
2018-11-11T18:58:58.901Z,100.00
2018-11-11T19:01:29.298Z,100.00
2018-11-11T19:03:59.737Z,100.00
2018-11-11T19:06:29.911Z,100.00
2018-11-11T19:09:00.195Z,100.00
2018-11-11T19:11:30.446Z,100.00
2018-11-11T19:14:00.758Z,100.00
2018-11-11T19:16:30.953Z,100.00
2018-11-11T19:19:01.372Z,100.00
2018-11-11T19:21:31.514Z,100.00
2018-11-11T19:24:01.792Z,100.00
2018-11-11T19:26:32.796Z,100.00
2018-11-11T19:29:05.803Z,100.00
2018-11-11T19:31:37.093Z,100.00
2018-11-11T19:34:09.439Z,100.00
2018-11-11T19:39:35.831Z,100.00
2018-11-11T19:42:06.836Z,100.00
2018-11-11T19:44:51.786Z,100.00
2018-11-11T19:47:25.055Z,100.00
2018-11-11T19:49:58.671Z,100.00
2018-11-11T19:55:15.964Z,100.00
2018-11-11T19:57:48.843Z,100.00
2018-11-11T20:00:24.467Z,100.00
2018-11-11T20:02:57.336Z,100.00
2018-11-11T20:05:29.177Z,100.00
2018-11-11T20:08:01.747Z,100.00
2018-11-11T20:10:36.654Z,100.00
2018-11-11T20:13:07.073Z,100.00
2018-11-11T20:15:37.570Z,100.00
2018-11-11T20:18:07.975Z,100.00
2018-11-11T20:20:40.817Z,100.00
2018-11-11T20:23:11.871Z,100.00
2018-11-11T20:25:43.474Z,100.00
2018-11-11T20:28:13.837Z,100.00
2018-11-11T20:30:45.999Z,100.00
2018-11-11T20:33:18.845Z,100.00
2018-11-11T20:35:50.799Z,100.00
2018-11-11T20:38:22.344Z,100.00
2018-11-11T20:40:53.134Z,100.00
2018-11-11T20:43:25.169Z,100.00
2018-11-11T20:45:56.524Z,100.00
2018-11-11T20:48:27.315Z,100.00
2018-11-11T20:50:58.013Z,100.00
2018-11-11T20:53:30.282Z,100.00
2018-11-11T20:56:01.091Z,100.00
2018-11-11T20:58:31.696Z,100.00
2018-11-11T21:01:03.765Z,100.00
2018-11-11T21:03:37.801Z,100.00
2018-11-11T21:06:09.302Z,100.00
2018-11-11T21:08:40.513Z,100.00
2018-11-11T21:11:13.272Z,100.00
2018-11-11T21:13:45.818Z,100.00
2018-11-11T21:16:18.180Z,100.00
2018-11-11T21:18:49.203Z,100.00
2018-11-11T21:21:20.642Z,100.00
2018-11-11T21:23:50.875Z,100.00
2018-11-11T21:26:21.188Z,100.00
2018-11-11T21:28:52.644Z,100.00
2018-11-11T21:31:23.435Z,100.00
2018-11-11T21:33:53.987Z,100.00
2018-11-11T21:36:25.982Z,100.00
2018-11-11T21:38:59.837Z,100.00
2018-11-11T21:41:30.113Z,100.00
2018-11-11T21:44:00.440Z,100.00
2018-11-11T21:46:30.764Z,100.00
2018-11-11T21:49:01.003Z,100.00
2018-11-11T21:51:31.254Z,100.00
2018-11-11T21:54:01.619Z,100.00
2018-11-11T21:56:32.014Z,100.00
2018-11-11T21:59:02.609Z,100.00
2018-11-11T22:01:33.130Z,100.00
2018-11-11T22:04:03.354Z,100.00
2018-11-11T22:06:33.570Z,100.00
2018-11-11T22:09:04.295Z,100.00
2018-11-11T22:11:34.496Z,100.00
2018-11-11T22:14:06.460Z,100.00
2018-11-11T22:16:36.770Z,100.00
2018-11-11T22:19:07.365Z,100.00
2018-11-11T22:21:37.681Z,100.00
2018-11-11T22:24:08.143Z,100.00
2018-11-11T22:26:38.334Z,100.00
2018-11-11T22:29:08.526Z,100.00
2018-11-11T22:31:38.793Z,100.00
2018-11-11T22:34:09.168Z,100.00
2018-11-11T22:36:39.491Z,100.00
2018-11-11T22:39:12.064Z,100.00
2018-11-11T22:41:42.384Z,100.00
2018-11-11T22:44:12.714Z,100.00
2018-11-11T22:46:42.932Z,100.00
2018-11-11T22:49:13.663Z,100.00
2018-11-11T22:51:43.954Z,100.00
2018-11-11T22:54:14.184Z,100.00
2018-11-11T22:56:44.458Z,100.00
2018-11-11T22:59:14.711Z,100.00
2018-11-11T23:01:44.940Z,100.00
2018-11-11T23:04:15.206Z,100.00
2018-11-11T23:06:45.620Z,100.00
2018-11-11T23:09:16.147Z,100.00
2018-11-11T23:11:46.452Z,100.00
2018-11-11T23:14:16.826Z,100.00
2018-11-11T23:16:47.162Z,100.00
2018-11-11T23:19:17.543Z,100.00
2018-11-11T23:21:48.074Z,100.00
2018-11-11T23:24:18.289Z,100.00
2018-11-11T23:26:48.601Z,100.00
2018-11-11T23:29:18.844Z,100.00
2018-11-11T23:31:49.118Z,100.00
2018-11-11T23:34:19.360Z,100.00
2018-11-11T23:36:49.795Z,100.00
2018-11-11T23:39:19.957Z,100.00
2018-11-11T23:41:50.171Z,100.00
2018-11-11T23:44:20.465Z,100.00
2018-11-11T23:46:50.684Z,100.00
2018-11-11T23:49:21.007Z,100.00
2018-11-11T23:51:51.230Z,100.00
2018-11-11T23:54:21.596Z,100.00
2018-11-11T23:56:51.978Z,100.00
2018-11-11T23:59:22.165Z,100.00
